createdAt,value
2018-09-01T00:00:37.723Z,9.60
2018-09-01T00:03:05.734Z,9.60
2018-09-01T00:05:33.748Z,9.50
2018-09-01T00:08:01.767Z,9.40
2018-09-01T00:10:29.774Z,9.30
2018-09-01T00:12:57.778Z,9.30
2018-09-01T00:15:25.878Z,9.20
2018-09-01T00:17:53.889Z,9.20
2018-09-01T00:20:21.907Z,9.20
2018-09-01T00:22:49.923Z,9.20
2018-09-01T00:25:17.927Z,9.20
2018-09-01T00:27:45.934Z,9.20
2018-09-01T00:30:13.943Z,9.20
2018-09-01T00:32:41.954Z,9.10
2018-09-01T00:35:09.959Z,9.20
2018-09-01T00:37:43.407Z,9.20
2018-09-01T00:40:11.411Z,9.10
2018-09-01T00:42:39.423Z,9.10
2018-09-01T00:45:07.500Z,9.00
2018-09-01T00:47:35.518Z,9.00
2018-09-01T00:50:03.523Z,9.00
2018-09-01T00:52:31.536Z,9.00
2018-09-01T00:54:59.540Z,9.00
2018-09-01T00:57:27.546Z,8.90
2018-09-01T00:59:55.555Z,8.90
2018-09-01T01:02:23.739Z,8.80
2018-09-01T01:04:51.755Z,8.70
2018-09-01T01:07:19.758Z,8.70
2018-09-01T01:09:47.755Z,8.70
2018-09-01T01:12:15.766Z,8.80
2018-09-01T01:14:43.768Z,8.80
2018-09-01T01:17:11.779Z,8.80
2018-09-01T01:19:40.582Z,8.80
2018-09-01T01:22:08.594Z,8.90
2018-09-01T01:24:36.691Z,8.90
2018-09-01T01:27:05.727Z,8.90
2018-09-01T01:29:33.734Z,8.90
2018-09-01T01:32:01.750Z,8.90
2018-09-01T01:34:29.758Z,8.90
2018-09-01T01:36:57.758Z,8.90
2018-09-01T01:39:32.331Z,8.90
2018-09-01T01:42:00.335Z,8.90
2018-09-01T01:44:28.325Z,8.90
2018-09-01T01:46:56.842Z,8.90
2018-09-01T01:49:24.875Z,8.80
2018-09-01T01:51:52.887Z,8.80
2018-09-01T01:54:20.887Z,8.80
2018-09-01T01:56:48.898Z,8.80
2018-09-01T01:59:16.891Z,8.80
2018-09-01T02:01:44.894Z,8.80
2018-09-01T02:04:12.894Z,8.80
2018-09-01T02:06:40.913Z,8.80
2018-09-01T02:09:08.912Z,8.80
2018-09-01T02:11:36.919Z,8.90
2018-09-01T02:14:04.931Z,8.90
2018-09-01T02:16:32.927Z,8.90
2018-09-01T02:19:00.947Z,8.90
2018-09-01T02:21:28.948Z,8.80
2018-09-01T02:23:56.959Z,8.70
2018-09-01T02:26:24.959Z,8.60
2018-09-01T02:28:52.972Z,8.60
2018-09-01T02:31:20.976Z,8.60
2018-09-01T02:33:48.980Z,8.50
2018-09-01T02:36:16.971Z,8.50
2018-09-01T02:38:44.982Z,8.50
2018-09-01T02:41:13.058Z,8.50
2018-09-01T02:43:41.068Z,8.40
2018-09-01T02:46:09.063Z,8.50
2018-09-01T02:48:37.067Z,8.50
2018-09-01T02:51:05.104Z,8.50
2018-09-01T02:53:33.108Z,8.50
2018-09-01T02:56:01.147Z,8.50
2018-09-01T02:58:29.157Z,8.40
2018-09-01T03:01:02.695Z,8.40
2018-09-01T03:03:30.732Z,8.40
2018-09-01T03:05:58.723Z,8.40
2018-09-01T03:08:26.770Z,8.40
2018-09-01T03:10:54.775Z,8.40
2018-09-01T03:13:22.774Z,8.40
2018-09-01T03:15:50.780Z,8.30
2018-09-01T03:18:18.803Z,8.30
2018-09-01T03:20:46.846Z,8.30
2018-09-01T03:23:14.858Z,8.20
2018-09-01T03:25:42.861Z,8.20
2018-09-01T03:28:10.883Z,8.20
2018-09-01T03:30:38.894Z,8.20
2018-09-01T03:33:06.926Z,8.20
2018-09-01T03:35:34.951Z,8.10
2018-09-01T03:38:02.998Z,8.10
2018-09-01T03:40:31.009Z,8.00
2018-09-01T03:42:59.019Z,8.00
2018-09-01T03:45:27.028Z,8.00
2018-09-01T03:47:55.292Z,7.90
2018-09-01T03:50:23.298Z,7.90
2018-09-01T03:52:51.315Z,7.90
2018-09-01T03:55:19.331Z,7.80
2018-09-01T03:57:47.375Z,7.80
2018-09-01T04:00:15.387Z,7.80
2018-09-01T04:02:43.395Z,7.80
2018-09-01T04:05:11.410Z,7.80
2018-09-01T04:07:39.442Z,7.80
2018-09-01T04:10:07.462Z,7.80
2018-09-01T04:12:35.470Z,7.80
2018-09-01T04:15:03.495Z,7.80
2018-09-01T04:17:31.510Z,7.80
2018-09-01T04:19:59.515Z,7.70
2018-09-01T04:22:27.523Z,7.70
2018-09-01T04:24:55.535Z,7.70
2018-09-01T04:27:23.530Z,7.70
2018-09-01T04:29:51.547Z,7.70
2018-09-01T04:32:19.543Z,7.70
2018-09-01T04:34:47.547Z,7.70
2018-09-01T04:37:15.544Z,7.80
2018-09-01T04:39:43.651Z,7.70
2018-09-01T04:42:11.648Z,7.70
2018-09-01T04:44:39.751Z,7.70
2018-09-01T04:47:07.840Z,7.90
2018-09-01T04:49:35.787Z,8.20
2018-09-01T04:52:03.775Z,8.50
2018-09-01T04:54:31.772Z,8.90
2018-09-01T04:56:59.774Z,8.90
2018-09-01T04:59:27.820Z,9.00
2018-09-01T05:01:55.816Z,9.00
2018-09-01T05:04:23.818Z,9.00
2018-09-01T05:06:51.827Z,9.00
2018-09-01T05:09:19.826Z,9.00
2018-09-01T05:11:47.831Z,9.10
2018-09-01T05:14:15.831Z,9.10
2018-09-01T05:16:43.838Z,9.20
2018-09-01T05:19:11.864Z,9.50
2018-09-01T05:21:39.870Z,10.20
2018-09-01T05:24:07.887Z,11.10
2018-09-01T05:26:35.882Z,11.80
2018-09-01T05:29:10.511Z,12.40
2018-09-01T05:31:38.524Z,13.10
2018-09-01T05:34:06.567Z,13.70
2018-09-01T05:36:34.621Z,14.20
2018-09-01T05:39:02.586Z,14.60
2018-09-01T05:41:30.628Z,15.00
2018-09-01T05:43:58.644Z,15.40
2018-09-01T05:46:26.656Z,15.80
2018-09-01T05:48:54.678Z,15.90
2018-09-01T05:51:22.673Z,16.10
2018-09-01T05:53:50.680Z,16.30
2018-09-01T05:56:18.690Z,16.50
2018-09-01T05:58:46.695Z,16.90
2018-09-01T06:01:14.719Z,17.10
2018-09-01T06:03:42.727Z,17.20
2018-09-01T06:06:10.994Z,17.00
2018-09-01T06:08:38.846Z,17.10
2018-09-01T06:11:06.871Z,17.20
2018-09-01T06:13:34.882Z,17.20
2018-09-01T06:16:02.903Z,17.30
2018-09-01T06:18:30.906Z,17.20
2018-09-01T06:20:58.923Z,17.20
2018-09-01T06:23:26.944Z,17.20
2018-09-01T06:25:54.963Z,17.20
2018-09-01T06:28:32.748Z,17.10
2018-09-01T06:31:00.768Z,17.10
2018-09-01T06:33:28.782Z,17.10
2018-09-01T06:35:56.803Z,17.20
2018-09-01T06:38:24.814Z,17.40
2018-09-01T06:40:52.831Z,17.50
2018-09-01T06:43:20.841Z,17.70
2018-09-01T06:45:48.856Z,17.80
2018-09-01T06:48:16.871Z,17.90
2018-09-01T06:50:44.901Z,17.90
2018-09-01T06:53:12.902Z,17.60
2018-09-01T06:55:41.252Z,17.50
2018-09-01T06:58:09.258Z,17.60
2018-09-01T07:00:37.279Z,17.80
2018-09-01T07:03:05.371Z,17.80
2018-09-01T07:05:33.386Z,17.70
2018-09-01T07:08:01.560Z,17.70
2018-09-01T07:10:29.589Z,17.70
2018-09-01T07:12:57.587Z,17.70
2018-09-01T07:15:25.608Z,17.70
2018-09-01T07:17:53.618Z,17.70
2018-09-01T07:20:21.731Z,18.00
2018-09-01T07:22:49.736Z,18.40
2018-09-01T07:25:17.747Z,18.80
2018-09-01T07:27:45.866Z,18.80
2018-09-01T07:30:13.935Z,19.00
2018-09-01T07:32:41.904Z,19.10
2018-09-01T07:35:09.919Z,19.30
2018-09-01T07:37:38.003Z,19.40
2018-09-01T07:40:06.025Z,19.40
2018-09-01T07:42:34.031Z,19.30
2018-09-01T07:45:02.035Z,19.30
2018-09-01T07:47:30.076Z,19.70
2018-09-01T07:49:58.099Z,19.70
2018-09-01T07:52:26.194Z,20.30
2018-09-01T07:54:54.209Z,20.30
2018-09-01T07:57:22.235Z,20.70
2018-09-01T08:04:45.982Z,22.00
2018-09-01T08:07:14.027Z,21.90
2018-09-01T08:12:09.891Z,22.10
2018-09-01T08:14:38.026Z,22.50
2018-09-01T08:26:57.366Z,23.00
2018-09-01T08:29:25.404Z,22.70
2018-09-01T08:31:53.427Z,22.70
2018-09-01T08:34:21.451Z,22.80
2018-09-01T08:36:49.491Z,22.70
2018-09-01T08:39:17.513Z,22.40
2018-09-01T08:41:45.542Z,21.90
2018-09-01T08:44:13.567Z,21.60
2018-09-01T08:46:41.604Z,21.40
2018-09-01T08:49:09.627Z,21.90
2018-09-01T08:51:37.654Z,22.50
2018-09-01T08:54:05.715Z,22.80
2018-09-01T08:56:33.763Z,23.20
2018-09-01T08:59:01.747Z,23.70
2018-09-01T09:01:29.771Z,24.60
2018-09-01T09:03:57.778Z,24.80
2018-09-01T09:06:25.798Z,24.80
2018-09-01T09:08:53.811Z,24.60
2018-09-01T09:11:21.855Z,23.60
2018-09-01T09:13:49.882Z,22.90
